Time;durP1;ratioP1;P1;durP2;ratioP2;P2;SDS_P1;SDS_P2;PMS_P1;PMS_P2;Temp;Humidity;BMP_temperature;BMP_pressure;BME280_temperature;BME280_humidity;BME280_pressure;Samples;Min_cycle;Max_cycle;Signal;HPM_P1;HPM_P2
2022/04/11 00:02:02;;;;;;;5.63;2.97;;;;;;;;;;5053368;28;20073;-75
2022/04/11 00:04:30;;;;;;;2.90;2.60;;;;;;;;;;5042157;28;20064;-75
2022/04/11 00:06:56;;;;;;;5.53;2.70;;;;;;;;;;5049023;28;20190;-75
2022/04/11 00:09:22;;;;;;;3.70;2.72;;;;;;;;;;5053566;28;20099;-74
2022/04/11 00:11:49;;;;;;;6.30;2.53;;;;;;;;;;5053394;28;20137;-74
2022/04/11 00:14:15;;;;;;;4.72;2.60;;;;;;;;;;5051294;28;20083;-74
2022/04/11 00:16:42;;;;;;;6.28;2.65;;;;;;;;;;5053346;28;20083;-74
2022/04/11 00:19:12;;;;;;;5.18;2.85;;;;;;;;;;5053355;28;20179;-74
2022/04/11 00:21:38;;;;;;;4.03;3.10;;;;;;;;;;5051914;28;20528;-75
2022/04/11 00:24:05;;;;;;;5.55;2.60;;;;;;;;;;5052933;28;20090;-75
2022/04/11 00:26:31;;;;;;;4.80;2.80;;;;;;;;;;5051908;28;20081;-74
2022/04/11 00:28:58;;;;;;;4.07;2.65;;;;;;;;;;5052913;28;20056;-74
2022/04/11 00:31:24;;;;;;;5.50;2.63;;;;;;;;;;5052786;28;20091;-74
2022/04/11 00:33:51;;;;;;;5.18;2.85;;;;;;;;;;5053209;28;20404;-75
2022/04/11 00:36:17;;;;;;;5.53;2.85;;;;;;;;;;5052549;28;20099;-74
2022/04/11 00:38:43;;;;;;;3.25;2.42;;;;;;;;;;5053006;28;20085;-74
2022/04/11 00:41:10;;;;;;;8.27;3.10;;;;;;;;;;5052398;28;20091;-75
2022/04/11 00:43:38;;;;;;;4.50;2.45;;;;;;;;;;5052976;28;20088;-74
2022/04/11 00:46:05;;;;;;;8.07;3.28;;;;;;;;;;5052952;28;20467;-74
2022/04/11 00:48:32;;;;;;;4.38;2.88;;;;;;;;;;5052835;28;20481;-74
2022/04/11 00:51:00;;;;;;;3.10;2.80;;;;;;;;;;5052535;28;20087;-75
2022/04/11 00:53:28;;;;;;;5.90;2.97;;;;;;;;;;5051000;28;20127;-75
2022/04/11 00:55:56;;;;;;;4.85;2.60;;;;;;;;;;5052528;28;20132;-75
2022/04/11 00:58:23;;;;;;;6.53;3.00;;;;;;;;;;5052619;28;20077;-75
2022/04/11 01:00:49;;;;;;;5.97;3.03;;;;;;;;;;5052374;28;20478;-74
2022/04/11 01:03:15;;;;;;;6.25;3.25;;;;;;;;;;5051992;28;20071;-74
2022/04/11 01:05:42;;;;;;;5.25;3.20;;;;;;;;;;5038696;28;20140;-75
2022/04/11 01:08:09;;;;;;;4.70;3.22;;;;;;;;;;5052473;28;20130;-75
2022/04/11 01:10:36;;;;;;;5.65;3.63;;;;;;;;;;5052353;28;20091;-74
2022/04/11 01:13:02;;;;;;;6.40;3.97;;;;;;;;;;5052313;28;20390;-75
2022/04/11 01:15:29;;;;;;;8.18;3.78;;;;;;;;;;5052001;28;20390;-75
2022/04/11 01:17:55;;;;;;;8.50;4.00;;;;;;;;;;5051002;28;20041;-74
2022/04/11 01:20:22;;;;;;;5.50;3.38;;;;;;;;;;5050745;28;20049;-74
2022/04/11 01:22:48;;;;;;;6.47;3.85;;;;;;;;;;5051779;28;20551;-74
2022/04/11 01:25:17;;;;;;;4.53;4.03;;;;;;;;;;5051286;28;20081;-75
2022/04/11 01:27:43;;;;;;;4.13;3.50;;;;;;;;;;5051789;28;20053;-75
2022/04/11 01:30:12;;;;;;;5.70;3.83;;;;;;;;;;5051837;28;20159;-75
2022/04/11 01:32:38;;;;;;;6.20;4.10;;;;;;;;;;5052009;28;20048;-74
2022/04/11 01:35:16;;;;;;;6.35;4.25;;;;;;;;;;5050653;28;20116;-75
2022/04/11 01:37:43;;;;;;;;;;;;;;;;;;5052424;28;20080;-74
2022/04/11 01:40:09;;;;;;;7.60;4.13;;;;;;;;;;5050803;28;20411;-75
2022/04/11 01:42:36;;;;;;;8.15;3.95;;;;;;;;;;5051427;28;20467;-75
2022/04/11 01:45:03;;;;;;;8.63;3.92;;;;;;;;;;5050426;28;20155;-75
2022/04/11 01:47:29;;;;;;;6.32;4.00;;;;;;;;;;5051802;28;20106;-75
2022/04/11 01:49:56;;;;;;;8.00;3.80;;;;;;;;;;5051558;28;20508;-74
2022/04/11 01:52:22;;;;;;;5.72;3.80;;;;;;;;;;5051786;28;20080;-74
2022/04/11 01:54:49;;;;;;;5.72;3.83;;;;;;;;;;5051348;28;20071;-74
2022/04/11 01:57:35;;;;;;;8.32;3.70;;;;;;;;;;5050374;28;20079;-74
2022/04/11 02:00:02;;;;;;;7.00;4.28;;;;;;;;;;5051369;28;20476;-74
2022/04/11 02:02:28;;;;;;;5.95;3.90;;;;;;;;;;5051487;28;20083;-74
2022/04/11 02:04:56;;;;;;;7.07;4.43;;;;;;;;;;5037751;28;20077;-74
2022/04/11 02:07:22;;;;;;;7.22;3.67;;;;;;;;;;5051450;28;20045;-74
2022/04/11 02:09:49;;;;;;;6.75;4.47;;;;;;;;;;5051412;28;20081;-74
2022/04/11 02:12:15;;;;;;;9.23;4.25;;;;;;;;;;5051212;28;20480;-74
2022/04/11 02:14:42;;;;;;;8.30;4.13;;;;;;;;;;5051509;28;20080;-74
2022/04/11 02:17:08;;;;;;;9.15;4.20;;;;;;;;;;5050099;28;20080;-74
2022/04/11 02:19:35;;;;;;;6.80;4.15;;;;;;;;;;5051260;28;20492;-74
2022/04/11 02:22:01;;;;;;;7.47;4.15;;;;;;;;;;5051554;28;20076;-74
2022/04/11 02:24:28;;;;;;;7.47;4.40;;;;;;;;;;5051401;28;20115;-74
2022/04/11 02:26:54;;;;;;;7.47;4.47;;;;;;;;;;5051196;28;20096;-74
2022/04/11 02:29:20;;;;;;;8.07;4.68;;;;;;;;;;5051403;28;20127;-74
2022/04/11 02:31:47;;;;;;;7.15;4.05;;;;;;;;;;5049985;28;20076;-74
2022/04/11 02:34:13;;;;;;;8.20;3.72;;;;;;;;;;5051507;28;20330;-74
2022/04/11 02:36:40;;;;;;;8.52;4.82;;;;;;;;;;5052109;28;20460;-74
2022/04/11 02:39:06;;;;;;;7.22;4.60;;;;;;;;;;5055302;28;20080;-74
2022/04/11 02:41:32;;;;;;;7.97;4.50;;;;;;;;;;5054653;28;20095;-74
2022/04/11 02:43:59;;;;;;;10.98;5.03;;;;;;;;;;5054924;28;20479;-74
2022/04/11 02:46:25;;;;;;;6.22;4.20;;;;;;;;;;5054808;28;20497;-74
2022/04/11 02:48:52;;;;;;;8.18;4.53;;;;;;;;;;5055047;28;20080;-74
2022/04/11 02:51:18;;;;;;;8.20;4.35;;;;;;;;;;5055074;28;20053;-74
2022/04/11 02:53:45;;;;;;;6.75;4.30;;;;;;;;;;5054740;28;20049;-74
2022/04/11 02:56:11;;;;;;;8.65;5.55;;;;;;;;;;5054912;28;20084;-75
2022/04/11 02:58:37;;;;;;;7.95;4.57;;;;;;;;;;5054882;28;20448;-74
2022/04/11 03:01:04;;;;;;;8.30;5.00;;;;;;;;;;5053340;28;20076;-74
2022/04/11 03:03:30;;;;;;;7.50;4.68;;;;;;;;;;5052237;28;20519;-74
2022/04/11 03:05:57;;;;;;;9.18;5.30;;;;;;;;;;5043699;28;20083;-74
2022/04/11 03:08:23;;;;;;;6.72;4.85;;;;;;;;;;5054435;28;20509;-74
2022/04/11 03:10:49;;;;;;;7.15;4.70;;;;;;;;;;5054681;28;20076;-74
2022/04/11 03:13:16;;;;;;;8.40;4.78;;;;;;;;;;5054338;28;20132;-74
2022/04/11 03:15:42;;;;;;;9.45;4.85;;;;;;;;;;5054480;28;20072;-74
2022/04/11 03:18:09;;;;;;;9.30;4.93;;;;;;;;;;5054550;28;20084;-74
2022/04/11 03:20:35;;;;;;;9.73;4.72;;;;;;;;;;5054372;28;20044;-74
2022/04/11 03:23:02;;;;;;;8.23;5.20;;;;;;;;;;5054458;28;20069;-75
2022/04/11 03:25:28;;;;;;;8.60;4.95;;;;;;;;;;5054435;28;20453;-74
2022/04/11 03:27:55;;;;;;;8.60;4.93;;;;;;;;;;5054372;28;20049;-74
2022/04/11 03:30:26;;;;;;;8.65;5.13;;;;;;;;;;5054449;28;20068;-74
2022/04/11 03:32:53;;;;;;;7.82;5.10;;;;;;;;;;5046240;28;20072;-74
2022/04/11 03:35:19;;;;;;;8.88;4.90;;;;;;;;;;5054006;28;20121;-74
2022/04/11 03:37:45;;;;;;;7.18;5.32;;;;;;;;;;5054136;28;20073;-74
2022/04/11 03:40:12;;;;;;;9.60;4.70;;;;;;;;;;5054113;28;20119;-74
2022/04/11 03:42:38;;;;;;;9.57;5.82;;;;;;;;;;5053894;28;20092;-74
2022/04/11 03:45:08;;;;;;;8.60;5.22;;;;;;;;;;5053685;28;20078;-75
2022/04/11 03:47:34;;;;;;;9.50;5.10;;;;;;;;;;5053507;28;20110;-74
2022/04/11 03:50:01;;;;;;;12.25;6.20;;;;;;;;;;5052899;28;20099;-75
2022/04/11 03:52:27;;;;;;;10.90;5.53;;;;;;;;;;5053552;28;20124;-75
2022/04/11 03:54:54;;;;;;;9.85;5.55;;;;;;;;;;5052569;28;20085;-75
2022/04/11 03:57:20;;;;;;;7.75;5.13;;;;;;;;;;5053810;28;20116;-75
2022/04/11 03:59:47;;;;;;;11.55;4.93;;;;;;;;;;5053617;28;20081;-75
2022/04/11 04:02:13;;;;;;;8.25;5.57;;;;;;;;;;5053404;28;20481;-75
2022/04/11 04:04:40;;;;;;;8.98;5.43;;;;;;;;;;5050073;28;20049;-74
2022/04/11 04:07:06;;;;;;;8.75;5.32;;;;;;;;;;5053255;28;20135;-74
2022/04/11 04:09:33;;;;;;;11.70;5.95;;;;;;;;;;5053288;28;20075;-74
2022/04/11 04:11:59;;;;;;;11.85;5.78;;;;;;;;;;5052166;28;20140;-74
2022/04/11 04:14:25;;;;;;;9.95;5.57;;;;;;;;;;5053381;28;20083;-74
2022/04/11 04:16:52;;;;;;;8.93;5.30;;;;;;;;;;5052195;28;20109;-74
2022/04/11 04:19:18;;;;;;;7.43;4.88;;;;;;;;;;5053415;28;20037;-74
2022/04/11 04:21:45;;;;;;;10.40;5.95;;;;;;;;;;5053053;28;20080;-74
2022/04/11 04:24:11;;;;;;;7.38;5.28;;;;;;;;;;5053247;28;20048;-74
2022/04/11 04:26:38;;;;;;;9.40;5.47;;;;;;;;;;5052983;28;20515;-74
2022/04/11 04:29:04;;;;;;;7.60;5.60;;;;;;;;;;5051851;28;20057;-74
2022/04/11 04:31:31;;;;;;;9.15;5.40;;;;;;;;;;5051924;28;20076;-74
2022/04/11 04:33:58;;;;;;;11.00;5.90;;;;;;;;;;5053184;28;20389;-74
2022/04/11 04:36:24;;;;;;;12.55;5.20;;;;;;;;;;5052844;28;20084;-74
2022/04/11 04:38:51;;;;;;;8.55;5.45;;;;;;;;;;5052745;28;20553;-74
2022/04/11 04:41:17;;;;;;;10.40;5.45;;;;;;;;;;5052518;28;20045;-74
2022/04/11 04:43:44;;;;;;;9.95;5.97;;;;;;;;;;5051397;28;20152;-75
2022/04/11 04:46:10;;;;;;;11.48;5.30;;;;;;;;;;5051361;28;20544;-74
2022/04/11 04:48:36;;;;;;;8.15;5.63;;;;;;;;;;5052466;28;20056;-74
2022/04/11 04:51:03;;;;;;;12.55;5.50;;;;;;;;;;5052760;28;20080;-74
2022/04/11 04:53:29;;;;;;;8.65;5.32;;;;;;;;;;5052645;28;20041;-74
2022/04/11 04:55:56;;;;;;;7.47;5.15;;;;;;;;;;5052658;28;20091;-74
2022/04/11 04:58:22;;;;;;;10.00;5.78;;;;;;;;;;5052318;28;20084;-74
2022/04/11 05:00:48;;;;;;;8.25;5.15;;;;;;;;;;5052220;28;20049;-74
2022/04/11 05:03:15;;;;;;;9.95;5.40;;;;;;;;;;5052132;28;20128;-74
2022/04/11 05:05:41;;;;;;;7.45;5.28;;;;;;;;;;5038910;28;20087;-74
2022/04/11 05:08:08;;;;;;;6.40;4.47;;;;;;;;;;5052501;28;20083;-74
2022/04/11 05:10:34;;;;;;;6.22;4.90;;;;;;;;;;5052073;28;20509;-75
2022/04/11 05:13:01;;;;;;;7.40;5.30;;;;;;;;;;5052345;28;20088;-74
2022/04/11 05:15:28;;;;;;;8.13;5.68;;;;;;;;;;5051940;28;20493;-73
2022/04/11 05:17:55;;;;;;;8.50;5.63;;;;;;;;;;5050772;28;20071;-74
2022/04/11 05:20:21;;;;;;;8.83;5.67;;;;;;;;;;5051946;28;20072;-73
2022/04/11 05:22:48;;;;;;;6.72;4.65;;;;;;;;;;5052283;28;20045;-74
2022/04/11 05:25:14;;;;;;;8.98;5.00;;;;;;;;;;5052191;28;20114;-73
2022/04/11 05:27:40;;;;;;;7.65;5.15;;;;;;;;;;5051847;28;20075;-73
2022/04/11 05:30:07;;;;;;;7.70;5.00;;;;;;;;;;5051877;28;20057;-73
2022/04/11 05:32:34;;;;;;;8.30;5.40;;;;;;;;;;5051752;28;20557;-74
2022/04/11 05:35:00;;;;;;;8.25;6.07;;;;;;;;;;5051776;28;20137;-74
2022/04/11 05:37:27;;;;;;;6.13;4.93;;;;;;;;;;5050652;28;20447;-73
2022/04/11 05:39:53;;;;;;;8.38;5.57;;;;;;;;;;5051965;28;20076;-74
2022/04/11 05:42:19;;;;;;;8.13;5.00;;;;;;;;;;5051729;28;20056;-74
2022/04/11 05:44:46;;;;;;;7.90;4.70;;;;;;;;;;5051651;28;20493;-74
2022/04/11 05:47:12;;;;;;;8.90;5.22;;;;;;;;;;5051622;28;20045;-73
2022/04/11 05:49:39;;;;;;;7.25;4.63;;;;;;;;;;5051624;28;20049;-73
2022/04/11 05:52:06;;;;;;;9.43;5.35;;;;;;;;;;5051477;28;20566;-73
2022/04/11 05:54:35;;;;;;;7.25;4.72;;;;;;;;;;5051867;28;20443;-73
2022/04/11 05:57:01;;;;;;;7.85;4.90;;;;;;;;;;5051427;28;20080;-73
2022/04/11 05:59:28;;;;;;;7.35;4.70;;;;;;;;;;5051752;28;20081;-73
2022/04/11 06:01:54;;;;;;;9.15;4.93;;;;;;;;;;5051334;28;20493;-74
2022/04/11 06:04:21;;;;;;;7.95;5.22;;;;;;;;;;5042578;28;20041;-74
2022/04/11 06:06:47;;;;;;;5.38;4.82;;;;;;;;;;5047002;28;20499;-74
2022/04/11 06:09:13;;;;;;;7.95;5.28;;;;;;;;;;5050473;28;20053;-75
2022/04/11 06:11:40;;;;;;;6.20;4.68;;;;;;;;;;5052577;28;20084;-75
2022/04/11 06:14:06;;;;;;;7.45;5.18;;;;;;;;;;5055636;28;20053;-74
2022/04/11 06:16:33;;;;;;;9.10;5.32;;;;;;;;;;5055686;28;20084;-74
2022/04/11 06:18:59;;;;;;;9.00;5.32;;;;;;;;;;5055359;28;20124;-74
2022/04/11 06:21:26;;;;;;;7.57;5.05;;;;;;;;;;5055619;28;20126;-74
2022/04/11 06:23:52;;;;;;;6.13;5.15;;;;;;;;;;5055289;28;20466;-74
2022/04/11 06:26:19;;;;;;;5.93;4.88;;;;;;;;;;5055234;28;20080;-74
2022/04/11 06:28:45;;;;;;;7.47;4.82;;;;;;;;;;5055409;28;20053;-75
2022/04/11 06:31:14;;;;;;;8.30;4.60;;;;;;;;;;5055403;28;20077;-74
2022/04/11 06:33:41;;;;;;;6.95;4.72;;;;;;;;;;5055474;28;20053;-74
2022/04/11 06:36:07;;;;;;;5.47;4.43;;;;;;;;;;5053679;28;20083;-74
2022/04/11 06:38:34;;;;;;;9.15;5.35;;;;;;;;;;5054843;28;20099;-73
2022/04/11 06:41:00;;;;;;;7.20;5.15;;;;;;;;;;5053227;28;20114;-75
2022/04/11 06:43:26;;;;;;;7.05;5.13;;;;;;;;;;5054293;28;20595;-74
2022/04/11 06:45:53;;;;;;;8.48;4.68;;;;;;;;;;5054705;28;20091;-73
2022/04/11 06:48:20;;;;;;;10.52;5.10;;;;;;;;;;5054859;28;20592;-75
2022/04/11 06:50:46;;;;;;;5.28;4.25;;;;;;;;;;5054717;28;20084;-72
2022/04/11 06:53:13;;;;;;;7.68;4.72;;;;;;;;;;5054921;28;20045;-74
2022/04/11 06:55:40;;;;;;;7.80;4.53;;;;;;;;;;5054835;28;20098;-75
2022/04/11 06:58:06;;;;;;;6.82;5.03;;;;;;;;;;5054855;28;20045;-72
2022/04/11 07:00:33;;;;;;;6.65;4.53;;;;;;;;;;5054599;28;20128;-73
2022/04/11 07:02:59;;;;;;;7.13;4.85;;;;;;;;;;5054864;28;20088;-72
2022/04/11 07:05:26;;;;;;;6.30;4.45;;;;;;;;;;5045201;28;20044;-73
2022/04/11 07:07:53;;;;;;;10.93;4.85;;;;;;;;;;5054503;28;20084;-73
2022/04/11 07:10:19;;;;;;;5.32;4.78;;;;;;;;;;5052730;28;20080;-73
2022/04/11 07:12:45;;;;;;;5.30;4.10;;;;;;;;;;5054674;28;20089;-74
2022/04/11 07:15:12;;;;;;;7.03;4.72;;;;;;;;;;5054334;28;20048;-73
2022/04/11 07:17:38;;;;;;;6.20;4.55;;;;;;;;;;5054292;28;20847;-73
2022/04/11 07:20:05;;;;;;;7.70;4.40;;;;;;;;;;5054216;28;20080;-73
2022/04/11 07:22:32;;;;;;;5.00;4.07;;;;;;;;;;5054023;28;20106;-73
2022/04/11 07:24:59;;;;;;;6.15;4.40;;;;;;;;;;5053552;28;20099;-73
2022/04/11 07:27:26;;;;;;;7.57;3.88;;;;;;;;;;5053225;28;20088;-73
2022/04/11 07:29:52;;;;;;;5.43;4.30;;;;;;;;;;5054466;28;20052;-73
2022/04/11 07:32:19;;;;;;;9.30;4.05;;;;;;;;;;5054258;28;20106;-74
2022/04/11 07:34:45;;;;;;;4.22;3.67;;;;;;;;;;5054313;28;20084;-74
2022/04/11 07:37:11;;;;;;;5.82;4.25;;;;;;;;;;5053804;28;20049;-74
2022/04/11 07:39:38;;;;;;;6.10;3.92;;;;;;;;;;5053856;28;20048;-74
2022/04/11 07:42:04;;;;;;;7.82;4.55;;;;;;;;;;5053651;28;20539;-71
2022/04/11 07:44:31;;;;;;;5.07;4.20;;;;;;;;;;5052644;28;20073;-71
2022/04/11 07:46:57;;;;;;;4.95;4.30;;;;;;;;;;5052882;28;20099;-71
2022/04/11 07:49:24;;;;;;;7.03;4.05;;;;;;;;;;5054082;28;20064;-71
2022/04/11 07:51:50;;;;;;;4.65;3.63;;;;;;;;;;5053515;28;20110;-72
2022/04/11 07:54:16;;;;;;;3.97;3.55;;;;;;;;;;5053710;28;20493;-71
2022/04/11 07:56:43;;;;;;;5.45;3.92;;;;;;;;;;5053830;28;20080;-71
2022/04/11 07:59:09;;;;;;;7.55;3.97;;;;;;;;;;5053608;28;20088;-71
2022/04/11 08:01:36;;;;;;;5.15;3.95;;;;;;;;;;5053556;28;20084;-71
2022/04/11 08:04:02;;;;;;;6.25;3.60;;;;;;;;;;5047195;28;20148;-71
2022/04/11 08:06:29;;;;;;;5.55;3.75;;;;;;;;;;5046544;28;20106;-71
2022/04/11 08:08:55;;;;;;;6.47;3.90;;;;;;;;;;5053679;28;20084;-71
2022/04/11 08:11:22;;;;;;;7.10;3.92;;;;;;;;;;5053554;28;20057;-71
2022/04/11 08:13:48;;;;;;;6.53;3.85;;;;;;;;;;5053431;28;20076;-71
2022/04/11 08:16:15;;;;;;;5.25;3.75;;;;;;;;;;5053413;28;20081;-71
2022/04/11 08:18:41;;;;;;;6.40;3.63;;;;;;;;;;5053152;28;20049;-71
2022/04/11 08:21:08;;;;;;;4.50;3.72;;;;;;;;;;5053136;28;20504;-71
2022/04/11 08:23:34;;;;;;;6.13;3.60;;;;;;;;;;5053118;28;20549;-71
2022/04/11 08:26:00;;;;;;;5.38;3.15;;;;;;;;;;5053229;28;20044;-71
2022/04/11 08:28:27;;;;;;;3.40;3.10;;;;;;;;;;5053005;28;20485;-71
2022/04/11 08:30:53;;;;;;;5.43;3.20;;;;;;;;;;5051948;28;20080;-71
2022/04/11 08:33:20;;;;;;;4.80;3.63;;;;;;;;;;5053002;28;20044;-71
2022/04/11 08:35:46;;;;;;;4.22;2.92;;;;;;;;;;5052284;28;20551;-71
2022/04/11 08:38:13;;;;;;;4.75;3.60;;;;;;;;;;5051437;28;20077;-71
2022/04/11 08:40:39;;;;;;;3.90;3.05;;;;;;;;;;5052732;28;20080;-71
2022/04/11 08:43:06;;;;;;;6.65;3.30;;;;;;;;;;5052598;28;20092;-71
2022/04/11 08:45:32;;;;;;;4.50;3.03;;;;;;;;;;5052685;28;20053;-74
2022/04/11 08:47:59;;;;;;;3.70;2.83;;;;;;;;;;5052783;28;20118;-73
2022/04/11 08:50:26;;;;;;;6.57;3.22;;;;;;;;;;5051567;28;20072;-73
2022/04/11 08:52:53;;;;;;;4.07;2.70;;;;;;;;;;5052706;28;20088;-73
2022/04/11 08:55:21;;;;;;;4.50;2.70;;;;;;;;;;5052432;28;20082;-73
2022/04/11 08:57:48;;;;;;;4.60;2.95;;;;;;;;;;5051396;28;20154;-71
2022/04/11 09:00:19;;;;;;;4.32;3.00;;;;;;;;;;5052347;28;20073;-71
2022/04/11 09:02:46;;;;;;;4.18;2.97;;;;;;;;;;5052508;28;20080;-71
2022/04/11 09:05:18;;;;;;;5.88;2.53;;;;;;;;;;5037426;28;20045;-70
2022/04/11 09:07:45;;;;;;;4.32;2.80;;;;;;;;;;5052577;28;20091;-71
2022/04/11 09:10:12;;;;;;;4.55;2.50;;;;;;;;;;5051272;28;20121;-71
2022/04/11 09:12:46;;;;;;;4.25;2.58;;;;;;;;;;5052349;28;20080;-71
2022/04/11 09:15:13;;;;;;;3.60;2.55;;;;;;;;;;5051150;28;20052;-71
2022/04/11 09:17:40;;;;;;;3.70;2.58;;;;;;;;;;5052039;28;20080;-71
2022/04/11 09:20:10;;;;;;;4.78;2.60;;;;;;;;;;5052101;28;20088;-71
2022/04/11 09:22:40;;;;;;;4.47;2.47;;;;;;;;;;5052317;28;20080;-71
2022/04/11 09:25:10;;;;;;;4.57;2.58;;;;;;;;;;5051941;28;20477;-71
2022/04/11 09:27:37;;;;;;;4.22;2.25;;;;;;;;;;5052205;28;20091;-71
2022/04/11 09:30:22;;;;;;;3.03;2.00;;;;;;;;;;5051857;28;20484;-71
2022/04/11 09:32:52;;;;;;;3.00;2.33;;;;;;;;;;5051730;28;20057;-71
2022/04/11 09:35:19;;;;;;;3.05;1.95;;;;;;;;;;5050581;28;20555;-71
2022/04/11 09:37:46;;;;;;;3.88;2.25;;;;;;;;;;5051668;28;20131;-71
2022/04/11 09:40:20;;;;;;;4.55;2.03;;;;;;;;;;5052273;28;20044;-71
2022/04/11 09:42:55;;;;;;;3.05;2.33;;;;;;;;;;5050456;28;20092;-71
2022/04/11 09:45:22;;;;;;;2.45;2.05;;;;;;;;;;5051874;28;20076;-71
2022/04/11 09:48:04;;;;;;;3.47;1.95;;;;;;;;;;5050929;28;20053;-72
2022/04/11 09:50:31;;;;;;;4.43;2.08;;;;;;;;;;5051867;28;20056;-71
2022/04/11 09:53:17;;;;;;;3.67;2.05;;;;;;;;;;5051770;28;20091;-71
2022/04/11 09:55:44;;;;;;;3.72;1.73;;;;;;;;;;5051628;28;20044;-72
2022/04/11 09:58:11;;;;;;;3.67;1.73;;;;;;;;;;5051552;28;20048;-71
2022/04/11 10:00:38;;;;;;;2.30;1.65;;;;;;;;;;5051570;28;20543;-72
2022/04/11 10:03:05;;;;;;;4.35;1.52;;;;;;;;;;5051756;28;20049;-71
2022/04/11 10:05:33;;;;;;;6.72;1.98;;;;;;;;;;5036242;28;20108;-71
2022/04/11 10:08:00;;;;;;;4.18;2.10;;;;;;;;;;5051446;28;20523;-72
2022/04/11 10:10:26;;;;;;;5.50;1.90;;;;;;;;;;5051503;28;20327;-71
2022/04/11 10:12:53;;;;;;;4.25;1.90;;;;;;;;;;5051701;28;20084;-71
2022/04/11 10:15:21;;;;;;;4.05;1.95;;;;;;;;;;5051232;28;20520;-71
2022/04/11 10:17:54;;;;;;;4.03;2.20;;;;;;;;;;5050404;28;20088;-71
2022/04/11 10:20:21;;;;;;;;;;;;;;;;;;5051647;28;20500;-71
2022/04/11 10:22:54;;;;;;;4.20;1.58;;;;;;;;;;5051569;28;19924;-71
2022/04/11 10:25:20;;;;;;;4.53;1.77;;;;;;;;;;5051539;28;20077;-71
2022/04/11 10:27:46;;;;;;;4.20;1.75;;;;;;;;;;5051530;28;20095;-71
2022/04/11 10:30:27;;;;;;;4.35;1.60;;;;;;;;;;5050066;28;20132;-71
2022/04/11 10:32:57;;;;;;;2.95;1.98;;;;;;;;;;5051799;28;20135;-71
2022/04/11 10:35:33;;;;;;;2.80;1.48;;;;;;;;;;5051387;28;20084;-71
2022/04/11 10:38:00;;;;;;;3.42;1.50;;;;;;;;;;5051419;28;20388;-72
2022/04/11 10:40:27;;;;;;;3.35;1.30;;;;;;;;;;5051414;28;20037;-72
2022/04/11 10:43:00;;;;;;;3.28;1.35;;;;;;;;;;5050969;28;20048;-72
2022/04/11 10:45:34;;;;;;;3.78;1.63;;;;;;;;;;5051365;28;20072;-72
2022/04/11 10:48:02;;;;;;;3.05;1.40;;;;;;;;;;5051306;28;20057;-72
2022/04/11 10:50:32;;;;;;;3.47;1.45;;;;;;;;;;5051039;28;20108;-72
2022/04/11 10:53:07;;;;;;;2.90;1.30;;;;;;;;;;5051249;28;20451;-72
2022/04/11 10:55:34;;;;;;;2.83;1.38;;;;;;;;;;5051352;28;20409;-72
2022/04/11 10:58:00;;;;;;;4.75;1.60;;;;;;;;;;5052585;28;20080;-71
2022/04/11 11:00:31;;;;;;;4.25;1.30;;;;;;;;;;5054743;28;20102;-71
2022/04/11 11:03:01;;;;;;;3.40;1.40;;;;;;;;;;5054607;28;20138;-72
2022/04/11 11:05:28;;;;;;;3.10;1.30;;;;;;;;;;5040581;28;20497;-72
2022/04/11 11:08:11;;;;;;;1.65;0.98;;;;;;;;;;5053323;28;20497;-72
2022/04/11 11:10:45;;;;;;;2.22;1.00;;;;;;;;;;5053538;28;20423;-72
2022/04/11 11:13:23;;;;;;;3.67;1.52;;;;;;;;;;5054776;28;20155;-72
2022/04/11 11:15:50;;;;;;;4.75;1.55;;;;;;;;;;5054667;28;20055;-72
2022/04/11 11:18:16;;;;;;;3.83;1.20;;;;;;;;;;5054380;28;20469;-72
2022/04/11 11:20:52;;;;;;;2.90;1.17;;;;;;;;;;5053080;28;20090;-72
2022/04/11 11:23:21;;;;;;;4.82;1.40;;;;;;;;;;5054320;28;20091;-72
2022/04/11 11:25:48;;;;;;;2.50;1.30;;;;;;;;;;5052827;28;20083;-72
2022/04/11 11:28:15;;;;;;;;;;;;;;;;;;5054939;28;20443;-71
2022/04/11 11:30:42;;;;;;;2.97;1.50;;;;;;;;;;5053117;28;19920;-71
2022/04/11 11:33:08;;;;;;;;;;;;;;;;;;5054840;28;20056;-71
2022/04/11 11:35:43;;;;;;;4.63;1.77;;;;;;;;;;5053997;28;19924;-72
2022/04/11 11:38:10;;;;;;;3.30;1.38;;;;;;;;;;5054183;28;20080;-72
2022/04/11 11:40:41;;;;;;;3.67;1.50;;;;;;;;;;5054176;28;20081;-72
2022/04/11 11:43:11;;;;;;;1.90;1.33;;;;;;;;;;5053574;28;20099;-72
2022/04/11 11:45:38;;;;;;;2.72;1.70;;;;;;;;;;5053821;28;20485;-72
2022/04/11 11:48:20;;;;;;;2.88;1.30;;;;;;;;;;5054065;28;20087;-72
2022/04/11 11:50:47;;;;;;;4.68;1.75;;;;;;;;;;5054025;28;20084;-72
2022/04/11 11:53:14;;;;;;;3.63;1.50;;;;;;;;;;5053894;28;20106;-72
2022/04/11 11:55:56;;;;;;;3.92;1.50;;;;;;;;;;5053945;28;20139;-72
2022/04/11 11:58:34;;;;;;;2.42;1.38;;;;;;;;;;5053462;28;20080;-72
2022/04/11 12:01:00;;;;;;;2.75;1.05;;;;;;;;;;5052613;28;20102;-72
2022/04/11 12:06:12;;;;;;;3.28;1.27;;;;;;;;;;5044350;28;20103;-72
2022/04/11 12:08:38;;;;;;;2.58;1.33;;;;;;;;;;5053506;28;20464;-72
2022/04/11 12:11:05;;;;;;;4.22;1.65;;;;;;;;;;5052791;28;20511;-72
2022/04/11 12:13:32;;;;;;;3.20;1.13;;;;;;;;;;5053641;28;20053;-72
2022/04/11 12:16:09;;;;;;;2.38;1.33;;;;;;;;;;5053181;28;20092;-72
2022/04/11 12:18:47;;;;;;;3.83;1.30;;;;;;;;;;5053079;28;20060;-72
2022/04/11 12:21:14;;;;;;;3.83;1.33;;;;;;;;;;5053420;28;20116;-72
2022/04/11 12:23:45;;;;;;;4.22;1.70;;;;;;;;;;5053385;28;20045;-72
2022/04/11 12:26:12;;;;;;;3.92;1.50;;;;;;;;;;5053082;28;20076;-72
2022/04/11 12:28:38;;;;;;;3.50;1.43;;;;;;;;;;5053404;28;20080;-72
2022/04/11 12:31:15;;;;;;;3.17;1.40;;;;;;;;;;5052964;28;20076;-72
2022/04/11 12:33:43;;;;;;;3.78;1.40;;;;;;;;;;5053328;28;20092;-72
2022/04/11 12:36:10;;;;;;;3.70;1.70;;;;;;;;;;5051908;28;20076;-72
2022/04/11 12:38:38;;;;;;;1.65;1.08;;;;;;;;;;5053080;28;20136;-72
2022/04/11 12:41:04;;;;;;;2.17;1.13;;;;;;;;;;5052723;28;20081;-72
2022/04/11 12:43:30;;;;;;;5.03;1.40;;;;;;;;;;5052265;28;20155;-72
2022/04/11 12:46:06;;;;;;;3.22;1.20;;;;;;;;;;5052999;28;20089;-72
2022/04/11 12:48:59;;;;;;;4.82;1.40;;;;;;;;;;5052982;28;20053;-72
2022/04/11 12:51:28;;;;;;;4.82;1.60;;;;;;;;;;5052200;28;20080;-72
2022/04/11 12:54:04;;;;;;;4.45;1.42;;;;;;;;;;5052772;28;20056;-72
2022/04/11 12:56:34;;;;;;;1.80;1.10;;;;;;;;;;5053003;28;20059;-72
2022/04/11 12:59:01;;;;;;;3.85;1.48;;;;;;;;;;5052392;28;20080;-72
2022/04/11 13:01:46;;;;;;;3.45;1.55;;;;;;;;;;5052425;28;20084;-72
2022/04/11 13:04:13;;;;;;;3.72;1.13;;;;;;;;;;5043075;28;20046;-72
2022/04/11 13:06:39;;;;;;;6.35;1.65;;;;;;;;;;5046587;28;20088;-72
2022/04/11 13:09:05;;;;;;;5.40;1.75;;;;;;;;;;5052305;28;20626;-72
2022/04/11 13:11:39;;;;;;;6.57;1.75;;;;;;;;;;5052547;28;20091;-72
2022/04/11 13:14:25;;;;;;;3.08;1.25;;;;;;;;;;5052448;28;20053;-72
2022/04/11 13:19:37;;;;;;;4.38;1.52;;;;;;;;;;5052032;28;20515;-72
2022/04/11 13:22:04;;;;;;;5.55;1.75;;;;;;;;;;5052248;28;20463;-72
2022/04/11 13:24:30;;;;;;;4.10;1.52;;;;;;;;;;5052120;28;20045;-72
2022/04/11 13:26:57;;;;;;;4.65;1.65;;;;;;;;;;5052258;28;20276;-72
2022/04/11 13:29:24;;;;;;;4.80;1.90;;;;;;;;;;5052145;28;20118;-72
2022/04/11 13:31:50;;;;;;;3.45;1.50;;;;;;;;;;5052190;28;20048;-72
2022/04/11 13:34:17;;;;;;;3.85;1.98;;;;;;;;;;5052132;28;20041;-72
2022/04/11 13:36:43;;;;;;;5.30;1.75;;;;;;;;;;5051990;28;20048;-72
2022/04/11 13:39:10;;;;;;;3.90;1.50;;;;;;;;;;5051732;28;20160;-71
2022/04/11 13:41:36;;;;;;;4.60;1.48;;;;;;;;;;5051702;28;20049;-72
2022/04/11 13:44:03;;;;;;;4.53;1.63;;;;;;;;;;5051521;28;20053;-72
2022/04/11 13:46:29;;;;;;;4.87;1.60;;;;;;;;;;5051911;28;20049;-72
2022/04/11 13:48:56;;;;;;;4.72;1.90;;;;;;;;;;5052501;28;20049;-72
2022/04/11 13:51:23;;;;;;;5.03;1.60;;;;;;;;;;5051752;28;20080;-72
2022/04/11 13:54:09;;;;;;;;;;;;;;;;;;5052160;28;20419;-72
2022/04/11 13:56:42;;;;;;;4.70;2.47;;;;;;;;;;5051766;28;19925;-72
2022/04/11 13:59:17;;;;;;;3.47;1.60;;;;;;;;;;5051459;28;20081;-72
2022/04/11 14:01:44;;;;;;;5.18;1.88;;;;;;;;;;5051465;28;20087;-72
2022/04/11 14:04:12;;;;;;;3.85;2.20;;;;;;;;;;5043825;28;20119;-72
2022/04/11 14:06:39;;;;;;;6.32;2.33;;;;;;;;;;5045951;28;20080;-72
2022/04/11 14:09:06;;;;;;;4.30;1.80;;;;;;;;;;5051420;28;20053;-72
2022/04/11 14:11:52;;;;;;;5.68;1.83;;;;;;;;;;5051609;28;20049;-72
2022/04/11 14:14:19;;;;;;;3.53;1.97;;;;;;;;;;5052046;28;20084;-72
2022/04/11 14:16:45;;;;;;;3.80;1.90;;;;;;;;;;5051618;28;20417;-72
2022/04/11 14:19:12;;;;;;;7.37;1.60;;;;;;;;;;5051222;28;20076;-72
2022/04/11 14:21:38;;;;;;;4.17;1.70;;;;;;;;;;5051296;28;20112;-72
2022/04/11 14:24:05;;;;;;;4.03;1.83;;;;;;;;;;5051504;28;20328;-72
2022/04/11 14:26:31;;;;;;;3.30;1.40;;;;;;;;;;5051228;28;20309;-72
2022/04/11 14:28:58;;;;;;;3.65;1.77;;;;;;;;;;5051409;28;20056;-72
2022/04/11 14:31:24;;;;;;;3.75;1.67;;;;;;;;;;5051495;28;20049;-72
2022/04/11 14:33:51;;;;;;;4.63;1.90;;;;;;;;;;5053973;28;20055;-72
2022/04/11 14:36:17;;;;;;;3.25;1.80;;;;;;;;;;5055177;28;20083;-72
2022/04/11 14:39:04;;;;;;;4.50;1.60;;;;;;;;;;5055342;28;20049;-72
2022/04/11 14:41:37;;;;;;;2.47;1.20;;;;;;;;;;5055426;28;20751;-72
2022/04/11 14:44:04;;;;;;;4.10;1.80;;;;;;;;;;5055090;28;20416;-72
2022/04/11 14:46:30;;;;;;;2.40;1.67;;;;;;;;;;5055225;28;20132;-72
2022/04/11 14:48:57;;;;;;;3.65;1.65;;;;;;;;;;5055008;28;20045;-72
2022/04/11 14:51:23;;;;;;;5.60;1.98;;;;;;;;;;5055087;28;20610;-72
2022/04/11 14:53:50;;;;;;;3.30;1.80;;;;;;;;;;5053827;28;20080;-72